Terminal Aerodrome Forecast
Issued by NWS Norman, OK

Home | Current Version | Previous Version | Text Only | Print | Product List | Glossary On
Versions: 1 2 3 4 5 6 7 8 9 10 11 12 13 14 15 16 17 18 19 20 21 22 23 24 25 26 27 28 29 30 31
088
FTUS44 KOUN 170853 AAA
TAFOKC
TAF AMD
KOKC 170853Z 1709/1806 31010KT P6SM SCT022
      TEMPO 1711/1714 BKN022
     FM171800 34006KT P6SM BKN040
     FM172300 VRB05KT P6SM OVC080=

USA.gov is the U.S. government's official web portal to all federal, state and local government web resources and services.